Sommer S — WDG3830 — position and weather

sailwx.info

Track history (hours):
 
Tides and Currents Weather Stations Pressure Air Temp Water Temp Dewpoint Dewpoint Depression Visibility Wind Speed Wind Dir Waves Ship Positions

Sommer S

More information available from US FCC via Universal Licensing System and Coast Guard Vessel Documentation Center.

Last reported at 2014-Aug-26 14:30 UTC. Time now 2014-Aug-28 05:22 UTC.
Position N 45°36' W 122°47'.

Length 25 m.

Type: Tug. MMSI: 367530080.

Date/timePositionNaut miles runAvg speedWind from/ knotsBaromVisibWave heightAir tempDewpointWater temp
2014-Aug-26 14:30N 45°36' W 122°47'  
2014-Aug-20 07:11N 46°15' W 123°34'5 7.5
2014-Aug-20 06:31N 46°15' W 123°41'7 7.8
2014-Aug-20 05:33N 46°12' W 123°50'1 0.9
2014-Aug-20 04:33N 46°11' W 123°52'0 0.1
2014-Aug-20 03:33N 46°11' W 123°52'0 0.0
2014-Aug-20 02:33N 46°11' W 123°52'6 6.2
2014-Aug-20 01:32N 46°14' W 123°43'38 4.7
2014-Aug-19 17:31N 46°02' W 122°52'5 5.1
2014-Aug-19 16:33N 46°06' W 122°56'11 9.5
2014-Aug-19 15:26N 46°11' W 123°09'1 1.4
2014-Aug-19 14:29N 46°11' W 123°11'8 7.3
2014-Aug-19 13:22N 46°08' W 123°00'4 3.3
2014-Aug-19 12:15N 46°05' W 122°56'0 0.0
2014-Aug-19 11:33N 46°05' W 122°56'1 1.0
2014-Aug-19 10:28N 46°06' W 122°57'1 1.5
2014-Aug-19 09:33N 46°07' W 122°59'0 0.3
2014-Aug-19 08:33N 46°07' W 122°58'0 0.0
2014-Aug-19 07:34N 46°07' W 122°58'0 0.0
2014-Aug-19 06:33N 46°07' W 122°58'2 1.6
2014-Aug-19 05:33N 46°06' W 122°56'0 0.0
2014-Aug-19 04:34N 46°06' W 122°56'31 4.2
2014-Aug-18 21:09N 45°36' W 122°47'6 8.8
2014-Aug-18 20:31N 45°32' W 122°41'1 1.5
2014-Aug-18 19:33N 45°33' W 122°42'1 1.2
2014-Aug-18 18:32N 45°34' W 122°44'0 0.0
2014-Aug-18 17:33N 45°34' W 122°44'0 0.0
2014-Aug-18 16:33N 45°34' W 122°44'5 4.5
2014-Aug-18 15:30N 45°38' W 122°47'1 1.2
2014-Aug-18 14:33N 45°38' W 122°47'7 7.3
2014-Aug-18 13:32N 45°32' W 122°41'0 0.3
2014-Aug-18 12:33N 45°32' W 122°41'3 1.6
2014-Aug-18 10:33N 45°34' W 122°44'1 0.8
2014-Aug-18 09:29N 45°35' W 122°45'2 1.8
2014-Aug-18 08:33N 45°36' W 122°47'3 2.9
2014-Aug-18 07:33N 45°39' W 122°45'0 0.0
2014-Aug-18 06:33N 45°39' W 122°45'0 0.3
2014-Aug-18 05:33N 45°39' W 122°45'2 2.0
2014-Aug-18 04:32N 45°37' W 122°47'7 0.7
2014-Aug-17 18:31N 45°32' W 122°40'0 0.0
2014-Aug-17 17:33N 45°32' W 122°40'6 5.8
2014-Aug-17 16:33N 45°36' W 122°47'3 3.2
2014-Aug-17 15:33N 45°38' W 122°44'2 1.6
2014-Aug-17 14:33N 45°38' W 122°42'2 2.4
2014-Aug-17 13:33N 45°39' W 122°45'0 0.1
2014-Aug-17 12:33N 45°39' W 122°45'0 0.0
2014-Aug-17 11:32N 45°39' W 122°45'0 0.0
2014-Aug-17 10:33N 45°39' W 122°45'0 0.4
2014-Aug-17 09:33N 45°39' W 122°45'0 0.4
2014-Aug-17 08:33N 45°39' W 122°45'0 0.0
2014-Aug-17 07:31N 45°39' W 122°45'0 0.0
2014-Aug-17 06:33N 45°39' W 122°45'2 1.5
2014-Aug-17 05:33N 45°38' W 122°43'2 1.6
2014-Aug-17 04:33N 45°39' W 122°45'1 0.2
2014-Aug-16 21:33N 45°38' W 122°44'1 0.7
2014-Aug-16 20:30N 45°39' W 122°45'5 4.7
2014-Aug-16 19:23N 45°44' W 122°46'7 8.3
2014-Aug-16 18:30N 45°51' W 122°47'9 9.6
2014-Aug-16 17:33N 45°60' W 122°51'2 2.2
2014-Aug-16 16:32N 46°02' W 122°53'0 0.2
2014-Aug-16 15:33N 46°02' W 122°52'  
Track history (hours):
 
Tides and Currents Weather Stations Pressure Air Temp Water Temp Dewpoint Dewpoint Depression Visibility Wind Speed Wind Dir Waves Ship Positions

Sommer S

More information available from US FCC via Universal Licensing System and Coast Guard Vessel Documentation Center.

Last reported at 2014-Aug-26 14:30 UTC. Time now 2014-Aug-28 05:22 UTC.
Position N 45°36' W 122°47'.

Length 25 m.

Type: Tug. MMSI: 367530080.

Date/timePositionNaut miles runAvg speedWind from/ knotsBaromVisibWave heightAir tempDewpointWater temp
2014-Aug-26 14:30N 45°36' W 122°47'  
2014-Aug-20 07:11N 46°15' W 123°34'5 7.5
2014-Aug-20 06:31N 46°15' W 123°41'7 7.8
2014-Aug-20 05:33N 46°12' W 123°50'1 0.9
2014-Aug-20 04:33N 46°11' W 123°52'0 0.1
2014-Aug-20 03:33N 46°11' W 123°52'0 0.0
2014-Aug-20 02:33N 46°11' W 123°52'6 6.2
2014-Aug-20 01:32N 46°14' W 123°43'38 4.7
2014-Aug-19 17:31N 46°02' W 122°52'5 5.1
2014-Aug-19 16:33N 46°06' W 122°56'11 9.5
2014-Aug-19 15:26N 46°11' W 123°09'1 1.4
2014-Aug-19 14:29N 46°11' W 123°11'8 7.3
2014-Aug-19 13:22N 46°08' W 123°00'4 3.3
2014-Aug-19 12:15N 46°05' W 122°56'0 0.0
2014-Aug-19 11:33N 46°05' W 122°56'1 1.0
2014-Aug-19 10:28N 46°06' W 122°57'1 1.5
2014-Aug-19 09:33N 46°07' W 122°59'0 0.3
2014-Aug-19 08:33N 46°07' W 122°58'0 0.0
2014-Aug-19 07:34N 46°07' W 122°58'0 0.0
2014-Aug-19 06:33N 46°07' W 122°58'2 1.6
2014-Aug-19 05:33N 46°06' W 122°56'0 0.0
2014-Aug-19 04:34N 46°06' W 122°56'31 4.2
2014-Aug-18 21:09N 45°36' W 122°47'6 8.8
2014-Aug-18 20:31N 45°32' W 122°41'1 1.5
2014-Aug-18 19:33N 45°33' W 122°42'1 1.2
2014-Aug-18 18:32N 45°34' W 122°44'0 0.0
2014-Aug-18 17:33N 45°34' W 122°44'0 0.0
2014-Aug-18 16:33N 45°34' W 122°44'5 4.5
2014-Aug-18 15:30N 45°38' W 122°47'1 1.2
2014-Aug-18 14:33N 45°38' W 122°47'7 7.3
2014-Aug-18 13:32N 45°32' W 122°41'0 0.3
2014-Aug-18 12:33N 45°32' W 122°41'3 1.6
2014-Aug-18 10:33N 45°34' W 122°44'1 0.8
2014-Aug-18 09:29N 45°35' W 122°45'2 1.8
2014-Aug-18 08:33N 45°36' W 122°47'3 2.9
2014-Aug-18 07:33N 45°39' W 122°45'0 0.0
2014-Aug-18 06:33N 45°39' W 122°45'0 0.3
2014-Aug-18 05:33N 45°39' W 122°45'2 2.0
2014-Aug-18 04:32N 45°37' W 122°47'7 0.7
2014-Aug-17 18:31N 45°32' W 122°40'0 0.0
2014-Aug-17 17:33N 45°32' W 122°40'6 5.8
2014-Aug-17 16:33N 45°36' W 122°47'3 3.2
2014-Aug-17 15:33N 45°38' W 122°44'2 1.6
2014-Aug-17 14:33N 45°38' W 122°42'2 2.4
2014-Aug-17 13:33N 45°39' W 122°45'0 0.1
2014-Aug-17 12:33N 45°39' W 122°45'0 0.0
2014-Aug-17 11:32N 45°39' W 122°45'0 0.0
2014-Aug-17 10:33N 45°39' W 122°45'0 0.4
2014-Aug-17 09:33N 45°39' W 122°45'0 0.4
2014-Aug-17 08:33N 45°39' W 122°45'0 0.0
2014-Aug-17 07:31N 45°39' W 122°45'0 0.0
2014-Aug-17 06:33N 45°39' W 122°45'2 1.5
2014-Aug-17 05:33N 45°38' W 122°43'2 1.6
2014-Aug-17 04:33N 45°39' W 122°45'1 0.2
2014-Aug-16 21:33N 45°38' W 122°44'1 0.7
2014-Aug-16 20:30N 45°39' W 122°45'5 4.7
2014-Aug-16 19:23N 45°44' W 122°46'7 8.3
2014-Aug-16 18:30N 45°51' W 122°47'9 9.6
2014-Aug-16 17:33N 45°60' W 122°51'2 2.2
2014-Aug-16 16:32N 46°02' W 122°53'0 0.2
2014-Aug-16 15:33N 46°02' W 122°52'  

Dump ship's entire track history